createdAt,value
2018-07-08T00:02:01.150Z,17.64
2018-07-08T00:04:30.629Z,17.51
2018-07-08T00:07:00.072Z,17.44
2018-07-08T00:09:29.594Z,17.39
2018-07-08T00:11:59.079Z,17.43
2018-07-08T00:14:28.488Z,17.44
2018-07-08T00:16:57.942Z,17.42
2018-07-08T00:19:27.410Z,17.35
2018-07-08T00:21:56.867Z,17.34
2018-07-08T00:24:26.265Z,17.30
2018-07-08T00:26:55.749Z,17.28
2018-07-08T00:29:25.222Z,17.25
2018-07-08T00:31:54.616Z,17.23
2018-07-08T00:34:24.132Z,17.00
2018-07-08T00:36:53.577Z,17.01
2018-07-08T00:39:23.089Z,16.92
2018-07-08T00:41:52.537Z,16.95
2018-07-08T00:44:22.034Z,16.97
2018-07-08T00:46:51.432Z,16.85
2018-07-08T00:49:20.880Z,16.85
2018-07-08T00:51:50.315Z,16.75
2018-07-08T00:54:19.756Z,16.79
2018-07-08T00:56:49.194Z,16.83
2018-07-08T00:59:18.652Z,16.85
2018-07-08T01:01:48.167Z,16.75
2018-07-08T01:04:17.533Z,16.67
2018-07-08T01:06:47.060Z,16.71
2018-07-08T01:09:16.723Z,16.71
2018-07-08T01:11:46.146Z,16.66
2018-07-08T01:14:15.605Z,16.50
2018-07-08T01:16:45.034Z,16.32
2018-07-08T01:19:14.438Z,16.25
2018-07-08T01:21:44.023Z,16.34
2018-07-08T01:24:13.451Z,16.45
2018-07-08T01:26:43.233Z,16.42
2018-07-08T01:29:12.652Z,16.43
2018-07-08T01:31:42.059Z,16.40
2018-07-08T01:34:11.493Z,16.32
2018-07-08T01:36:40.965Z,16.38
2018-07-08T01:39:10.442Z,16.30
2018-07-08T01:41:39.903Z,16.30
2018-07-08T01:44:09.410Z,16.21
2018-07-08T01:46:38.843Z,16.24
2018-07-08T01:49:08.327Z,16.22
2018-07-08T01:51:37.775Z,16.19
2018-07-08T01:54:07.213Z,16.14
2018-07-08T01:56:36.734Z,16.14
2018-07-08T01:59:06.242Z,15.90
2018-07-08T02:01:35.743Z,15.88
2018-07-08T02:04:05.174Z,15.87
2018-07-08T02:06:34.626Z,15.83
2018-07-08T02:09:04.241Z,15.76
2018-07-08T02:11:33.718Z,15.64
2018-07-08T02:14:03.219Z,15.75
2018-07-08T02:16:32.656Z,15.79
2018-07-08T02:19:02.139Z,15.84
2018-07-08T02:21:31.535Z,15.78
2018-07-08T02:24:01.047Z,15.65
2018-07-08T02:26:30.573Z,15.62
2018-07-08T02:29:00.060Z,15.58
2018-07-08T02:31:29.491Z,15.68
2018-07-08T02:33:58.899Z,15.74
2018-07-08T02:36:28.533Z,15.74
2018-07-08T02:38:58.179Z,15.64
2018-07-08T02:41:27.619Z,15.69
2018-07-08T02:43:57.028Z,15.59
2018-07-08T02:46:26.484Z,15.34
2018-07-08T02:48:55.918Z,15.26
2018-07-08T02:51:25.355Z,15.38
2018-07-08T02:53:54.755Z,15.26
2018-07-08T02:56:24.188Z,15.36
2018-07-08T02:58:53.602Z,15.42
2018-07-08T03:01:23.645Z,15.33
2018-07-08T03:03:54.065Z,15.32
2018-07-08T03:06:23.511Z,15.28
2018-07-08T03:08:52.889Z,15.30
2018-07-08T03:11:22.254Z,15.31
2018-07-08T03:13:52.051Z,15.34
2018-07-08T03:16:21.432Z,15.27
2018-07-08T03:18:50.959Z,15.15
2018-07-08T03:21:20.401Z,15.14
2018-07-08T03:23:49.845Z,15.13
2018-07-08T03:26:19.250Z,15.11
2018-07-08T03:28:48.641Z,15.06
2018-07-08T03:31:18.132Z,15.10
2018-07-08T03:33:47.587Z,15.07
2018-07-08T03:36:17.093Z,15.07
2018-07-08T03:38:46.637Z,14.92
2018-07-08T03:41:16.085Z,14.98
2018-07-08T03:43:45.536Z,14.82
2018-07-08T03:46:14.981Z,14.70
2018-07-08T03:48:44.478Z,14.83
2018-07-08T03:51:13.906Z,14.85
2018-07-08T03:53:43.389Z,14.83
2018-07-08T03:56:12.828Z,14.80
2018-07-08T03:58:42.245Z,14.78
2018-07-08T04:01:11.729Z,14.82
2018-07-08T04:03:41.161Z,14.75
2018-07-08T04:06:10.574Z,14.79
2018-07-08T04:08:39.958Z,14.85
2018-07-08T04:11:09.548Z,14.89
2018-07-08T04:13:39.097Z,14.83
2018-07-08T04:16:09.807Z,14.86
2018-07-08T04:18:39.248Z,14.92
2018-07-08T04:21:08.633Z,14.91
2018-07-08T04:23:38.085Z,14.86
2018-07-08T04:26:07.493Z,14.93
2018-07-08T04:28:36.912Z,14.88
2018-07-08T04:31:06.498Z,14.89
2018-07-08T04:33:35.916Z,14.92
2018-07-08T04:36:05.367Z,14.91
2018-07-08T04:38:34.809Z,14.97
2018-07-08T04:41:04.249Z,15.02
2018-07-08T04:43:33.627Z,15.01
2018-07-08T04:46:03.040Z,15.04
2018-07-08T04:48:32.479Z,15.03
2018-07-08T04:51:01.866Z,15.08
2018-07-08T04:53:31.300Z,15.13
2018-07-08T04:56:00.665Z,15.17
2018-07-08T04:58:30.106Z,15.17
2018-07-08T05:00:59.544Z,15.15
2018-07-08T05:03:28.939Z,15.16
2018-07-08T05:05:58.383Z,15.21
2018-07-08T05:08:27.752Z,15.29
2018-07-08T05:10:57.256Z,15.35
2018-07-08T05:13:26.720Z,15.40
2018-07-08T05:15:56.122Z,15.41
2018-07-08T05:18:25.590Z,15.42
2018-07-08T05:20:55.035Z,15.44
2018-07-08T05:23:24.422Z,15.46
2018-07-08T05:25:53.848Z,15.49
2018-07-08T05:28:23.247Z,15.55
2018-07-08T05:30:52.650Z,15.60
2018-07-08T05:33:22.107Z,15.66
2018-07-08T05:35:51.534Z,15.76
2018-07-08T05:38:20.991Z,15.80
2018-07-08T05:40:50.503Z,15.87
2018-07-08T05:43:19.964Z,15.90
2018-07-08T05:45:49.534Z,15.94
2018-07-08T05:48:18.992Z,15.95
2018-07-08T05:50:50.459Z,15.98
2018-07-08T05:53:19.866Z,16.05
2018-07-08T05:55:49.270Z,16.10
2018-07-08T05:58:18.729Z,16.16
2018-07-08T06:00:48.171Z,16.22
2018-07-08T06:03:17.624Z,16.29
2018-07-08T06:05:48.785Z,16.34
2018-07-08T06:08:18.259Z,16.40
2018-07-08T06:10:47.762Z,16.47
2018-07-08T06:13:17.215Z,16.55
2018-07-08T06:15:46.651Z,16.61
2018-07-08T06:18:16.022Z,16.69
2018-07-08T06:20:45.536Z,16.76
2018-07-08T06:23:15.019Z,16.81
2018-07-08T06:25:44.478Z,16.89
2018-07-08T06:28:13.954Z,16.93
2018-07-08T06:30:43.370Z,17.00
2018-07-08T06:33:12.885Z,17.11
2018-07-08T06:35:42.280Z,17.18
2018-07-08T06:38:11.745Z,17.24
2018-07-08T06:40:41.206Z,17.33
2018-07-08T06:43:10.646Z,17.39
2018-07-08T06:45:41.642Z,17.44
2018-07-08T06:48:12.423Z,17.52
2018-07-08T06:50:42.454Z,17.59
2018-07-08T06:53:11.918Z,17.72
2018-07-08T06:55:41.357Z,17.80
2018-07-08T06:58:10.847Z,17.86
2018-07-08T07:00:40.283Z,17.93
2018-07-08T07:03:09.784Z,18.00
2018-07-08T07:05:39.320Z,18.07
2018-07-08T07:08:08.750Z,18.14
2018-07-08T07:10:38.245Z,18.21
2018-07-08T07:13:07.700Z,18.27
2018-07-08T07:15:37.128Z,18.28
2018-07-08T07:18:06.648Z,18.40
2018-07-08T07:20:36.166Z,18.45
2018-07-08T07:23:05.696Z,18.47
2018-07-08T07:25:35.296Z,18.53
2018-07-08T07:28:05.100Z,18.56
2018-07-08T07:30:36.684Z,18.64
2018-07-08T07:33:08.554Z,18.68
2018-07-08T07:35:41.257Z,18.75
2018-07-08T07:38:13.902Z,18.75
2018-07-08T07:40:47.762Z,18.82
2018-07-08T07:43:18.543Z,18.83
2018-07-08T07:45:48.451Z,18.87
2018-07-08T07:48:18.083Z,18.94
2018-07-08T07:50:48.751Z,18.96
2018-07-08T07:53:18.184Z,18.98
2018-07-08T07:55:47.636Z,18.99
2018-07-08T07:58:17.028Z,19.03
2018-07-08T08:00:46.504Z,19.09
2018-07-08T08:03:15.927Z,19.15
2018-07-08T08:05:45.344Z,19.20
2018-07-08T08:08:14.744Z,19.26
2018-07-08T08:10:44.228Z,19.30
2018-07-08T08:13:13.694Z,19.30
2018-07-08T08:15:43.157Z,19.35
2018-07-08T08:18:12.590Z,19.36
2018-07-08T08:20:42.030Z,19.36
2018-07-08T08:23:11.498Z,19.40
2018-07-08T08:25:40.935Z,19.44
2018-07-08T08:28:10.378Z,19.50
2018-07-08T08:30:39.836Z,19.56
2018-07-08T08:33:09.278Z,19.63
2018-07-08T08:35:38.695Z,19.68
2018-07-08T08:38:08.126Z,19.68
2018-07-08T08:40:37.535Z,19.72
2018-07-08T08:43:07.135Z,19.76
2018-07-08T08:45:36.583Z,19.75
2018-07-08T08:48:06.092Z,19.78
2018-07-08T08:50:35.554Z,19.84
2018-07-08T08:53:05.126Z,19.86
2018-07-08T08:55:34.559Z,19.90
2018-07-08T08:58:03.995Z,19.94
2018-07-08T09:00:33.392Z,19.96
2018-07-08T09:03:02.842Z,19.98
2018-07-08T09:05:32.287Z,20.01
2018-07-08T09:08:01.767Z,20.04
2018-07-08T09:10:31.112Z,20.06
2018-07-08T09:13:00.561Z,20.07
2018-07-08T09:15:29.960Z,20.13
2018-07-08T09:17:59.420Z,20.19
2018-07-08T09:20:28.939Z,20.23
2018-07-08T09:22:58.395Z,20.27
2018-07-08T09:25:27.758Z,20.33
2018-07-08T09:27:57.187Z,20.41
2018-07-08T09:30:26.573Z,20.44
2018-07-08T09:32:56.003Z,20.44
2018-07-08T09:35:25.395Z,20.44
2018-07-08T09:37:54.887Z,20.47
2018-07-08T09:40:24.305Z,20.50
2018-07-08T09:42:53.736Z,20.55
2018-07-08T09:45:23.188Z,20.64
2018-07-08T09:47:52.627Z,20.64
2018-07-08T09:50:22.065Z,20.68
2018-07-08T09:52:51.470Z,20.73
2018-07-08T09:55:20.897Z,20.76
2018-07-08T09:57:50.339Z,20.77
2018-07-08T10:00:19.748Z,20.79
2018-07-08T10:02:49.157Z,20.78
2018-07-08T10:05:18.574Z,20.83
2018-07-08T10:07:47.985Z,20.86
2018-07-08T10:10:17.454Z,20.88
2018-07-08T10:12:46.844Z,20.98
2018-07-08T10:15:16.295Z,21.04
2018-07-08T10:17:45.780Z,21.06
2018-07-08T10:20:15.216Z,21.13
2018-07-08T10:22:44.651Z,21.16
2018-07-08T10:25:14.118Z,21.22
2018-07-08T10:28:02.576Z,21.20
2018-07-08T10:30:31.991Z,21.27
2018-07-08T10:33:01.444Z,21.26
2018-07-08T10:35:47.547Z,21.26
2018-07-08T10:38:17.099Z,21.32
2018-07-08T10:40:46.882Z,21.35
2018-07-08T10:43:16.861Z,21.39
2018-07-08T10:45:46.648Z,21.43
2018-07-08T10:48:16.501Z,21.48
2018-07-08T10:50:46.036Z,21.53
2018-07-08T10:53:15.556Z,21.57
2018-07-08T10:55:45.070Z,21.61
2018-07-08T10:58:14.533Z,21.64
2018-07-08T11:00:43.981Z,21.67
2018-07-08T11:03:13.469Z,21.73
2018-07-08T11:05:42.860Z,21.77
2018-07-08T11:08:12.284Z,21.82
2018-07-08T11:10:41.828Z,21.90
2018-07-08T11:13:11.161Z,21.93
2018-07-08T11:15:40.793Z,21.96
2018-07-08T11:18:10.198Z,21.98
2018-07-08T11:20:39.799Z,22.02
2018-07-08T11:23:09.213Z,22.08
2018-07-08T11:25:38.662Z,22.17
2018-07-08T11:28:08.731Z,22.21
2018-07-08T11:30:38.182Z,22.21
2018-07-08T11:33:08.211Z,22.26
2018-07-08T11:35:37.672Z,22.31
2018-07-08T11:38:07.499Z,22.37
2018-07-08T11:40:36.933Z,22.45
2018-07-08T11:43:06.421Z,22.44
2018-07-08T11:45:35.920Z,22.51
2018-07-08T11:48:05.566Z,22.61
2018-07-08T11:50:35.148Z,22.65
2018-07-08T11:53:04.700Z,22.67
2018-07-08T11:55:34.169Z,22.69
2018-07-08T11:58:03.629Z,22.70
2018-07-08T12:00:33.136Z,22.72
2018-07-08T12:03:02.624Z,22.73
2018-07-08T12:05:32.075Z,22.77
2018-07-08T12:08:01.480Z,22.91
2018-07-08T12:10:30.926Z,22.94
2018-07-08T12:13:00.438Z,22.97
2018-07-08T12:15:29.841Z,23.01
2018-07-08T12:17:59.290Z,23.08
2018-07-08T12:20:28.695Z,23.11
2018-07-08T12:22:58.106Z,23.06
2018-07-08T12:25:27.559Z,23.09
2018-07-08T12:27:57.035Z,23.10
2018-07-08T12:30:26.455Z,23.19
2018-07-08T12:32:55.957Z,23.20
2018-07-08T12:35:25.468Z,23.22
2018-07-08T12:37:54.951Z,23.28
2018-07-08T12:40:24.376Z,23.36
2018-07-08T12:42:53.802Z,23.36
2018-07-08T12:45:23.154Z,23.41
2018-07-08T12:47:52.582Z,23.46
2018-07-08T12:50:22.039Z,23.50
2018-07-08T12:52:51.544Z,23.59
2018-07-08T12:55:21.026Z,23.69
2018-07-08T12:57:50.479Z,23.73
2018-07-08T13:00:19.893Z,23.72
2018-07-08T13:02:49.388Z,23.74
2018-07-08T13:05:18.834Z,23.83
2018-07-08T13:07:48.307Z,23.95
2018-07-08T13:10:17.729Z,24.03
2018-07-08T13:12:47.209Z,24.05
2018-07-08T13:15:16.628Z,24.08
2018-07-08T13:17:46.075Z,24.10
2018-07-08T13:20:15.473Z,24.16
2018-07-08T13:22:44.912Z,24.19
2018-07-08T13:25:14.332Z,24.19
2018-07-08T13:27:43.734Z,24.26
2018-07-08T13:30:13.180Z,24.33
2018-07-08T13:32:42.744Z,24.34
2018-07-08T13:35:12.162Z,24.39
2018-07-08T13:37:41.593Z,24.53
2018-07-08T13:40:11.017Z,24.54
2018-07-08T13:42:40.466Z,24.64
2018-07-08T13:45:10.001Z,24.71
2018-07-08T13:47:39.446Z,24.77
2018-07-08T13:50:08.948Z,24.85
2018-07-08T13:52:38.403Z,24.92
2018-07-08T13:55:07.886Z,25.02
2018-07-08T13:57:37.439Z,25.01
2018-07-08T14:00:07.531Z,25.20
2018-07-08T14:02:37.018Z,25.27
2018-07-08T14:05:06.534Z,25.33
2018-07-08T14:07:35.941Z,25.37
2018-07-08T14:10:05.444Z,25.43
2018-07-08T14:12:34.860Z,25.57
2018-07-08T14:15:04.309Z,25.62
2018-07-08T14:17:33.742Z,25.75
2018-07-08T14:20:03.244Z,25.81
2018-07-08T14:22:32.731Z,25.82
2018-07-08T14:25:02.312Z,25.89
2018-07-08T14:27:31.799Z,25.95
2018-07-08T14:30:01.192Z,25.97
2018-07-08T14:32:30.668Z,26.08
2018-07-08T14:35:00.244Z,26.14
2018-07-08T14:37:29.705Z,26.17
2018-07-08T14:39:59.208Z,26.20
2018-07-08T14:42:28.604Z,26.28
2018-07-08T14:44:58.213Z,26.36
2018-07-08T14:47:27.629Z,26.45
2018-07-08T14:49:57.153Z,26.53
2018-07-08T14:52:26.705Z,26.57
2018-07-08T14:54:56.170Z,26.65
2018-07-08T14:57:25.644Z,26.75
2018-07-08T14:59:55.171Z,26.81
2018-07-08T15:02:24.636Z,26.87
2018-07-08T15:04:54.149Z,26.99
2018-07-08T15:07:23.566Z,27.07
2018-07-08T15:09:53.215Z,27.22
2018-07-08T15:12:22.700Z,27.24
2018-07-08T15:14:52.106Z,27.32
2018-07-08T15:17:21.609Z,27.42
2018-07-08T15:19:51.112Z,27.52
2018-07-08T15:22:20.611Z,27.64
2018-07-08T15:24:50.036Z,27.74
2018-07-08T15:27:19.507Z,27.71
2018-07-08T15:29:49.038Z,27.80
2018-07-08T15:32:18.517Z,27.88
2018-07-08T15:34:47.963Z,27.90
2018-07-08T15:37:17.465Z,27.98
2018-07-08T15:39:46.935Z,28.07
2018-07-08T15:42:16.457Z,28.14
2018-07-08T15:44:45.895Z,28.14
2018-07-08T15:47:15.341Z,28.27
2018-07-08T15:49:44.905Z,28.42
2018-07-08T15:52:14.345Z,28.57
2018-07-08T15:54:43.761Z,28.77
2018-07-08T15:57:13.221Z,28.87
2018-07-08T15:59:42.639Z,28.95
2018-07-08T16:02:12.100Z,28.86
2018-07-08T16:04:41.624Z,28.82
2018-07-08T16:07:11.144Z,28.69
2018-07-08T16:09:40.543Z,28.51
2018-07-08T16:12:10.033Z,28.23
2018-07-08T16:14:39.468Z,28.27
2018-07-08T16:17:08.921Z,28.09
2018-07-08T16:19:38.347Z,28.04
2018-07-08T16:22:07.797Z,27.98
2018-07-08T16:24:37.215Z,27.85
2018-07-08T16:27:07.036Z,27.80
2018-07-08T16:29:36.525Z,27.77
2018-07-08T16:32:06.058Z,27.63
2018-07-08T16:34:36.398Z,27.61
2018-07-08T16:37:05.844Z,27.70
2018-07-08T16:39:35.297Z,27.75
2018-07-08T16:42:04.738Z,27.77
2018-07-08T16:44:34.446Z,27.86
2018-07-08T16:47:03.950Z,27.91
2018-07-08T16:49:33.350Z,28.00
2018-07-08T16:52:02.832Z,28.17
2018-07-08T16:54:32.399Z,28.22
2018-07-08T16:57:01.924Z,28.34
2018-07-08T16:59:31.465Z,28.41
2018-07-08T17:02:00.992Z,28.57
2018-07-08T17:04:30.422Z,28.73
2018-07-08T17:06:59.909Z,28.73
2018-07-08T17:09:29.421Z,29.00
2018-07-08T17:11:58.942Z,29.17
2018-07-08T17:14:28.361Z,29.18
2018-07-08T17:16:57.847Z,29.22
2018-07-08T17:19:27.305Z,29.47
2018-07-08T17:21:57.090Z,29.59
2018-07-08T17:24:26.530Z,29.62
2018-07-08T17:26:55.958Z,29.59
2018-07-08T17:29:25.512Z,29.74
2018-07-08T17:31:54.981Z,29.45
2018-07-08T17:34:24.458Z,29.31
2018-07-08T17:36:54.131Z,29.08
2018-07-08T17:39:23.589Z,28.82
2018-07-08T17:41:53.097Z,28.59
2018-07-08T17:44:22.605Z,28.29
2018-07-08T17:46:52.045Z,28.09
2018-07-08T17:49:21.654Z,27.82
2018-07-08T17:51:51.696Z,27.66
2018-07-08T17:54:22.458Z,27.52
2018-07-08T17:56:52.077Z,27.37
2018-07-08T17:59:21.661Z,27.05
2018-07-08T18:01:51.155Z,26.78
2018-07-08T18:04:20.636Z,26.73
2018-07-08T18:06:50.178Z,26.56
2018-07-08T18:09:19.895Z,26.42
2018-07-08T18:11:49.386Z,26.31
2018-07-08T18:14:18.892Z,26.13
2018-07-08T18:16:48.336Z,25.98
2018-07-08T18:19:17.750Z,25.81
2018-07-08T18:21:47.224Z,25.60
2018-07-08T18:24:16.966Z,25.47
2018-07-08T18:26:46.571Z,25.31
2018-07-08T18:29:16.065Z,25.24
2018-07-08T18:31:45.598Z,25.15
2018-07-08T18:34:15.097Z,24.95
2018-07-08T18:36:45.481Z,24.81
2018-07-08T18:39:14.998Z,24.74
2018-07-08T18:41:44.444Z,24.55
2018-07-08T18:44:13.854Z,24.48
2018-07-08T18:46:43.402Z,24.44
2018-07-08T18:49:12.874Z,24.34
2018-07-08T18:51:42.373Z,24.22
2018-07-08T18:54:11.852Z,24.12
2018-07-08T18:56:41.369Z,24.02
2018-07-08T18:59:10.878Z,23.95
2018-07-08T19:01:40.432Z,23.83
2018-07-08T19:04:09.850Z,23.70
2018-07-08T19:06:39.378Z,23.54
2018-07-08T19:09:08.855Z,23.54
2018-07-08T19:11:38.332Z,23.40
2018-07-08T19:14:08.317Z,23.35
2018-07-08T19:16:37.816Z,23.27
2018-07-08T19:19:07.548Z,23.26
2018-07-08T19:21:37.027Z,23.15
2018-07-08T19:24:06.623Z,23.08
2018-07-08T19:26:36.206Z,22.83
2018-07-08T19:29:05.685Z,22.64
2018-07-08T19:31:35.164Z,22.57
2018-07-08T19:34:04.592Z,22.46
2018-07-08T19:36:34.153Z,22.44
2018-07-08T19:39:03.995Z,22.41
2018-07-08T19:41:33.527Z,22.33
2018-07-08T19:44:03.004Z,22.22
2018-07-08T19:46:32.626Z,22.21
2018-07-08T19:49:02.120Z,22.12
2018-07-08T19:51:31.807Z,22.05
2018-07-08T19:54:02.109Z,21.97
2018-07-08T19:56:31.585Z,21.85
2018-07-08T19:59:01.259Z,21.72
2018-07-08T20:01:30.681Z,21.68
2018-07-08T20:04:00.162Z,21.58
2018-07-08T20:06:29.677Z,21.47
2018-07-08T20:08:59.161Z,21.43
2018-07-08T20:11:28.811Z,21.37
2018-07-08T20:13:59.131Z,21.29
2018-07-08T20:16:28.860Z,21.14
2018-07-08T20:18:58.341Z,21.04
2018-07-08T20:21:28.084Z,20.99
2018-07-08T20:23:57.398Z,20.93
2018-07-08T20:26:26.991Z,20.89
2018-07-08T20:28:56.573Z,20.78
2018-07-08T20:31:26.045Z,20.73
2018-07-08T20:33:55.516Z,20.70
2018-07-08T20:36:24.965Z,20.62
2018-07-08T20:38:54.417Z,20.45
2018-07-08T20:41:23.952Z,20.29
2018-07-08T20:43:54.006Z,20.29
2018-07-08T20:46:23.509Z,20.28
2018-07-08T20:48:53.031Z,20.28
2018-07-08T20:51:22.537Z,20.21
2018-07-08T20:53:52.037Z,19.94
2018-07-08T20:56:21.850Z,19.98
2018-07-08T20:58:51.378Z,19.95
2018-07-08T21:01:20.931Z,19.81
2018-07-08T21:03:50.642Z,19.65
2018-07-08T21:06:20.113Z,19.70
2018-07-08T21:08:49.587Z,19.68
2018-07-08T21:11:19.091Z,19.43
2018-07-08T21:13:48.527Z,19.55
2018-07-08T21:16:18.065Z,19.54
2018-07-08T21:18:47.622Z,19.48
2018-07-08T21:21:16.994Z,19.34
2018-07-08T21:23:46.499Z,19.19
2018-07-08T21:26:15.973Z,19.18
2018-07-08T21:28:45.389Z,19.08
2018-07-08T21:31:14.868Z,19.06
2018-07-08T21:33:44.854Z,19.12
2018-07-08T21:36:14.315Z,19.11
2018-07-08T21:38:44.191Z,18.95
2018-07-08T21:41:13.655Z,18.94
2018-07-08T21:43:43.155Z,18.73
2018-07-08T21:46:13.683Z,18.72
2018-07-08T21:48:43.303Z,18.73
2018-07-08T21:51:13.319Z,18.73
2018-07-08T21:53:42.849Z,18.65
2018-07-08T21:56:12.289Z,18.59
2018-07-08T21:58:41.709Z,18.63
2018-07-08T22:01:17.543Z,18.39
2018-07-08T22:03:47.698Z,18.41
2018-07-08T22:06:17.937Z,18.45
2018-07-08T22:08:47.428Z,18.39
2018-07-08T22:11:17.022Z,18.32
2018-07-08T22:13:46.538Z,18.25
2018-07-08T22:16:15.932Z,18.25
2018-07-08T22:18:45.414Z,18.13
2018-07-08T22:21:14.887Z,18.08
2018-07-08T22:23:44.394Z,18.12
2018-07-08T22:26:13.835Z,17.96
2018-07-08T22:28:43.335Z,18.00
2018-07-08T22:31:12.768Z,17.96
2018-07-08T22:33:42.226Z,17.86
2018-07-08T22:36:11.637Z,17.88
2018-07-08T22:38:41.144Z,17.90
2018-07-08T22:41:10.582Z,17.90
2018-07-08T22:43:39.987Z,17.92
2018-07-08T22:46:09.478Z,17.88
2018-07-08T22:48:38.930Z,17.81
2018-07-08T22:51:08.376Z,17.74
2018-07-08T22:53:37.850Z,17.69
2018-07-08T22:56:07.420Z,17.78
2018-07-08T22:58:37.512Z,17.72
2018-07-08T23:01:23.697Z,17.69
2018-07-08T23:03:58.828Z,17.59
2018-07-08T23:06:28.300Z,17.36
2018-07-08T23:08:58.048Z,17.47
2018-07-08T23:11:28.070Z,17.42
2018-07-08T23:13:58.159Z,17.40
2018-07-08T23:16:28.194Z,17.44
2018-07-08T23:18:57.707Z,17.43
2018-07-08T23:21:27.217Z,17.32
2018-07-08T23:23:56.704Z,17.35
2018-07-08T23:26:26.147Z,17.23
2018-07-08T23:28:55.585Z,16.94
2018-07-08T23:31:25.065Z,17.04
2018-07-08T23:33:54.490Z,17.03
2018-07-08T23:36:23.913Z,16.96
2018-07-08T23:38:53.388Z,16.97
2018-07-08T23:41:22.839Z,17.02
2018-07-08T23:43:52.299Z,17.01
2018-07-08T23:46:21.815Z,16.92
2018-07-08T23:48:51.322Z,16.86
2018-07-08T23:51:20.757Z,16.77
2018-07-08T23:53:50.197Z,16.77
2018-07-08T23:56:19.636Z,16.77
2018-07-08T23:58:49.136Z,16.66
